createdAt,value
2018-07-16T00:00:54.054Z,952.15
2018-07-16T00:03:20.379Z,952.14
2018-07-16T00:05:46.711Z,952.19
2018-07-16T00:08:13.063Z,952.25
2018-07-16T00:10:39.371Z,952.28
2018-07-16T00:13:05.686Z,952.21
2018-07-16T00:15:32.002Z,952.19
2018-07-16T00:17:58.314Z,952.23
2018-07-16T00:20:24.625Z,952.22
2018-07-16T00:22:50.938Z,952.23
2018-07-16T00:25:17.250Z,952.30
2018-07-16T00:27:43.571Z,952.32
2018-07-16T00:30:09.924Z,952.29
2018-07-16T00:32:36.236Z,952.32
2018-07-16T00:35:02.554Z,952.31
2018-07-16T00:37:28.862Z,952.33
2018-07-16T00:39:55.177Z,952.40
2018-07-16T00:42:21.493Z,952.34
2018-07-16T00:44:47.843Z,952.30
2018-07-16T00:47:14.156Z,952.25
2018-07-16T00:49:40.467Z,952.26
2018-07-16T00:52:06.789Z,952.31
2018-07-16T00:54:33.144Z,952.43
2018-07-16T00:56:59.463Z,952.37
2018-07-16T00:59:25.777Z,952.40
2018-07-16T01:01:52.094Z,952.38
2018-07-16T01:04:18.412Z,952.49
2018-07-16T01:06:44.724Z,952.46
2018-07-16T01:09:11.034Z,952.54
2018-07-16T01:11:37.384Z,952.42
2018-07-16T01:14:03.703Z,952.40
2018-07-16T01:16:30.014Z,952.36
2018-07-16T01:18:56.324Z,952.42
2018-07-16T01:21:22.678Z,952.44
2018-07-16T01:23:48.990Z,952.46
2018-07-16T01:26:15.347Z,952.46
2018-07-16T01:28:41.689Z,952.48
2018-07-16T01:31:07.963Z,952.50
2018-07-16T01:33:34.277Z,952.55
2018-07-16T01:36:00.587Z,952.47
2018-07-16T01:38:26.914Z,952.42
2018-07-16T01:40:53.266Z,952.48
2018-07-16T01:43:19.583Z,952.48
2018-07-16T01:45:45.905Z,952.51
2018-07-16T01:48:12.217Z,952.44
2018-07-16T01:50:38.536Z,952.52
2018-07-16T01:53:04.884Z,952.49
2018-07-16T01:55:31.196Z,952.44
2018-07-16T01:57:57.516Z,952.43
2018-07-16T02:00:23.863Z,952.48
2018-07-16T02:02:50.171Z,952.51
2018-07-16T02:05:16.520Z,952.61
2018-07-16T02:07:42.829Z,952.65
2018-07-16T02:10:09.145Z,952.66
2018-07-16T02:12:35.455Z,952.54
2018-07-16T02:15:01.769Z,952.54
2018-07-16T02:17:28.084Z,952.52
2018-07-16T02:19:54.392Z,952.60
2018-07-16T02:22:20.705Z,952.53
2018-07-16T02:24:47.018Z,952.61
2018-07-16T02:27:13.383Z,952.60
2018-07-16T02:29:39.696Z,952.66
2018-07-16T02:32:06.005Z,952.67
2018-07-16T02:34:32.331Z,952.71
2018-07-16T02:36:58.653Z,952.72
2018-07-16T02:39:24.965Z,952.65
2018-07-16T02:41:51.298Z,952.66
2018-07-16T02:44:17.657Z,952.67
2018-07-16T02:46:44.044Z,952.62
2018-07-16T02:49:10.358Z,952.62
2018-07-16T02:51:36.680Z,952.62
2018-07-16T02:54:03.065Z,952.58
2018-07-16T02:56:29.415Z,952.67
2018-07-16T02:58:55.731Z,952.61
2018-07-16T03:01:22.040Z,952.72
2018-07-16T03:03:48.405Z,952.65
2018-07-16T03:06:14.718Z,952.64
2018-07-16T03:08:41.067Z,952.70
2018-07-16T03:11:07.459Z,952.65
2018-07-16T03:13:33.758Z,952.63
2018-07-16T03:16:00.071Z,952.61
2018-07-16T03:18:26.433Z,952.57
2018-07-16T03:20:52.742Z,952.58
2018-07-16T03:23:19.052Z,952.50
2018-07-16T03:25:45.372Z,952.51
2018-07-16T03:28:11.728Z,952.53
2018-07-16T03:30:38.039Z,952.60
2018-07-16T03:33:04.400Z,952.58
2018-07-16T03:35:30.755Z,952.60
2018-07-16T03:37:57.068Z,952.62
2018-07-16T03:40:23.509Z,952.65
2018-07-16T03:42:49.815Z,952.68
2018-07-16T03:45:16.128Z,952.71
2018-07-16T03:47:42.443Z,952.65
2018-07-16T03:50:08.773Z,952.65
2018-07-16T03:52:35.095Z,952.60
2018-07-16T03:55:01.410Z,952.60
2018-07-16T03:57:27.720Z,952.67
2018-07-16T03:59:54.039Z,952.63
2018-07-16T04:02:20.348Z,952.61
2018-07-16T04:04:46.663Z,952.62
2018-07-16T04:07:12.977Z,952.60
2018-07-16T04:09:39.288Z,952.70
2018-07-16T04:12:05.640Z,952.60
2018-07-16T04:14:31.953Z,952.59
2018-07-16T04:16:58.268Z,952.58
2018-07-16T04:19:24.580Z,952.54
2018-07-16T04:21:51.049Z,952.43
2018-07-16T04:24:17.360Z,952.47
2018-07-16T04:26:43.672Z,952.46
2018-07-16T04:29:09.985Z,952.46
2018-07-16T04:31:36.295Z,952.48
2018-07-16T04:34:02.608Z,952.46
2018-07-16T04:36:28.924Z,952.44
2018-07-16T04:38:55.233Z,952.44
2018-07-16T04:41:21.542Z,952.45
2018-07-16T04:43:47.851Z,952.48
2018-07-16T04:46:14.168Z,952.46
2018-07-16T04:48:40.489Z,952.43
2018-07-16T04:51:06.810Z,952.41
2018-07-16T04:53:33.122Z,952.39
2018-07-16T04:55:59.428Z,952.43
2018-07-16T04:58:25.804Z,952.37
2018-07-16T05:00:52.122Z,952.42
2018-07-16T05:03:18.513Z,952.38
2018-07-16T05:05:44.793Z,952.34
2018-07-16T05:08:11.125Z,952.35
2018-07-16T05:10:37.437Z,952.32
2018-07-16T05:13:03.795Z,952.32
2018-07-16T05:15:30.126Z,952.30
2018-07-16T05:17:56.439Z,952.35
2018-07-16T05:20:22.770Z,952.31
2018-07-16T05:22:49.083Z,952.25
2018-07-16T05:25:15.393Z,952.14
2018-07-16T05:27:41.699Z,952.18
2018-07-16T05:30:08.054Z,952.25
2018-07-16T05:32:34.475Z,952.34
2018-07-16T05:35:00.678Z,952.29
2018-07-16T05:37:27.007Z,952.27
2018-07-16T05:39:53.324Z,952.27
2018-07-16T05:42:19.642Z,952.31
2018-07-16T05:44:45.956Z,952.31
2018-07-16T05:47:12.274Z,952.35
2018-07-16T05:49:38.591Z,952.35
2018-07-16T05:52:04.962Z,952.36
2018-07-16T05:54:31.271Z,952.36
2018-07-16T05:56:57.582Z,952.33
2018-07-16T05:59:23.892Z,952.35
2018-07-16T06:01:50.209Z,952.33
2018-07-16T06:04:16.526Z,952.33
2018-07-16T06:06:42.836Z,952.33
2018-07-16T06:09:09.148Z,952.29
2018-07-16T06:11:35.466Z,952.29
2018-07-16T06:14:01.774Z,952.31
2018-07-16T06:16:28.084Z,952.34
2018-07-16T06:18:54.464Z,952.26
2018-07-16T06:21:20.767Z,952.28
2018-07-16T06:23:47.075Z,952.35
2018-07-16T06:26:13.410Z,952.32
2018-07-16T06:28:39.721Z,952.33
2018-07-16T06:31:06.033Z,952.23
2018-07-16T06:33:32.373Z,952.28
2018-07-16T06:35:58.725Z,952.17
2018-07-16T06:38:25.113Z,952.14
2018-07-16T06:40:51.654Z,952.13
2018-07-16T06:43:17.721Z,952.15
2018-07-16T06:45:44.032Z,952.06
2018-07-16T06:48:10.397Z,952.13
2018-07-16T06:50:36.711Z,952.13
2018-07-16T06:53:03.041Z,952.05
2018-07-16T06:55:29.347Z,952.00
2018-07-16T06:57:55.663Z,952.05
2018-07-16T07:00:21.971Z,952.00
2018-07-16T07:02:48.296Z,952.00
2018-07-16T07:05:14.609Z,952.04
2018-07-16T07:07:40.920Z,951.94
2018-07-16T07:10:07.319Z,951.87
2018-07-16T07:12:33.597Z,951.89
2018-07-16T07:14:59.907Z,951.86
2018-07-16T07:17:26.227Z,951.82
2018-07-16T07:19:52.541Z,951.81
2018-07-16T07:22:18.914Z,951.92
2018-07-16T07:24:45.228Z,951.79
2018-07-16T07:27:11.589Z,951.81
2018-07-16T07:29:37.908Z,951.78
2018-07-16T07:32:04.221Z,951.80
2018-07-16T07:34:30.538Z,951.75
2018-07-16T07:36:56.855Z,951.92
2018-07-16T07:39:23.171Z,951.87
2018-07-16T07:41:49.481Z,951.85
2018-07-16T07:44:15.796Z,951.86
2018-07-16T07:46:42.110Z,951.83
2018-07-16T07:49:08.443Z,951.83
2018-07-16T07:51:34.751Z,951.86
2018-07-16T07:54:01.066Z,951.88
2018-07-16T07:56:27.416Z,951.85
2018-07-16T07:58:53.733Z,951.95
2018-07-16T08:01:20.045Z,951.87
2018-07-16T08:03:46.360Z,951.95
2018-07-16T08:06:12.671Z,951.88
2018-07-16T08:08:38.983Z,951.95
2018-07-16T08:11:05.292Z,951.97
2018-07-16T08:13:31.612Z,951.90
2018-07-16T08:15:57.922Z,951.87
2018-07-16T08:18:24.231Z,951.84
2018-07-16T08:20:50.553Z,951.96
2018-07-16T08:23:16.866Z,951.82
2018-07-16T08:25:43.180Z,951.85
2018-07-16T08:28:09.507Z,951.83
2018-07-16T08:30:35.811Z,951.85
2018-07-16T08:33:02.121Z,951.87
2018-07-16T08:35:28.436Z,951.74
2018-07-16T08:37:54.753Z,951.78
2018-07-16T08:40:21.067Z,951.76
2018-07-16T08:42:47.380Z,951.74
2018-07-16T08:45:13.718Z,951.71
2018-07-16T08:47:40.008Z,951.80
2018-07-16T08:50:06.320Z,951.78
2018-07-16T08:52:32.633Z,951.77
2018-07-16T08:54:58.953Z,951.76
2018-07-16T08:57:25.277Z,951.74
2018-07-16T08:59:51.588Z,951.76
2018-07-16T09:02:17.900Z,951.79
2018-07-16T09:04:44.217Z,951.88
2018-07-16T09:07:10.618Z,951.81
2018-07-16T09:09:36.851Z,951.88
2018-07-16T09:12:03.175Z,951.82
2018-07-16T09:14:29.483Z,951.84
2018-07-16T09:16:55.804Z,951.96
2018-07-16T09:19:22.113Z,951.87
2018-07-16T09:21:48.448Z,951.89
2018-07-16T09:24:14.759Z,951.85
2018-07-16T09:26:41.072Z,951.87
2018-07-16T09:29:07.383Z,951.88
2018-07-16T09:31:33.694Z,951.86
2018-07-16T09:34:00.014Z,951.90
2018-07-16T09:36:26.323Z,951.93
2018-07-16T09:38:52.667Z,951.81
2018-07-16T09:41:18.965Z,951.87
2018-07-16T09:43:45.281Z,951.90
2018-07-16T09:46:11.591Z,951.82
2018-07-16T09:48:37.920Z,951.95
2018-07-16T09:51:04.271Z,951.83
2018-07-16T09:53:30.592Z,951.74
2018-07-16T09:55:56.940Z,951.82
2018-07-16T09:58:23.263Z,951.74
2018-07-16T10:00:49.584Z,951.74
2018-07-16T10:03:15.896Z,951.78
2018-07-16T10:05:42.259Z,951.66
2018-07-16T10:08:08.561Z,951.64
2018-07-16T10:10:34.879Z,951.62
2018-07-16T10:13:01.196Z,951.57
2018-07-16T10:15:27.518Z,951.47
2018-07-16T10:17:53.840Z,951.46
2018-07-16T10:20:20.255Z,951.44
2018-07-16T10:22:46.470Z,951.42
2018-07-16T10:25:12.779Z,951.46
2018-07-16T10:27:39.091Z,951.40
2018-07-16T10:30:05.445Z,951.39
2018-07-16T10:32:31.757Z,951.34
2018-07-16T10:34:58.067Z,951.38
2018-07-16T10:37:24.390Z,951.45
2018-07-16T10:39:50.703Z,951.46
2018-07-16T10:42:17.024Z,951.36
2018-07-16T10:44:43.335Z,951.37
2018-07-16T10:47:09.658Z,951.42
2018-07-16T10:49:36.023Z,951.46
2018-07-16T10:52:02.288Z,951.46
2018-07-16T10:54:28.601Z,951.35
2018-07-16T10:56:54.911Z,951.39
2018-07-16T10:59:21.230Z,951.42
2018-07-16T11:01:47.564Z,951.37
2018-07-16T11:04:13.889Z,951.42
2018-07-16T11:06:40.205Z,951.39
2018-07-16T11:09:06.512Z,951.52
2018-07-16T11:11:32.824Z,951.47
2018-07-16T11:13:59.142Z,951.40
2018-07-16T11:16:25.457Z,951.41
2018-07-16T11:18:51.773Z,951.32
2018-07-16T11:21:18.090Z,951.16
2018-07-16T11:23:44.410Z,951.27
2018-07-16T11:26:10.768Z,951.29
2018-07-16T11:28:37.083Z,951.14
2018-07-16T11:31:03.396Z,951.26
2018-07-16T11:33:29.703Z,951.17
2018-07-16T11:35:56.105Z,951.18
2018-07-16T11:38:22.342Z,951.11
2018-07-16T11:40:48.654Z,951.15
2018-07-16T11:43:14.981Z,951.08
2018-07-16T11:45:41.287Z,951.11
2018-07-16T11:48:07.603Z,951.06
2018-07-16T11:50:33.926Z,951.17
2018-07-16T11:53:00.254Z,951.11
2018-07-16T11:55:26.566Z,950.95
2018-07-16T11:57:52.876Z,950.92
2018-07-16T12:00:19.197Z,951.03
2018-07-16T12:02:45.515Z,951.09
2018-07-16T12:05:11.894Z,951.13
2018-07-16T12:07:38.151Z,951.06
2018-07-16T12:10:04.455Z,951.08
2018-07-16T12:12:30.779Z,951.15
2018-07-16T12:14:57.075Z,951.09
2018-07-16T12:17:23.411Z,950.97
2018-07-16T12:19:49.731Z,951.08
2018-07-16T12:22:16.053Z,951.07
2018-07-16T12:24:42.363Z,951.09
2018-07-16T12:27:08.675Z,951.06
2018-07-16T12:29:35.007Z,951.03
2018-07-16T12:32:01.330Z,951.07
2018-07-16T12:34:27.644Z,951.10
2018-07-16T12:36:53.966Z,950.99
2018-07-16T12:39:20.283Z,951.05
2018-07-16T12:41:46.644Z,950.98
2018-07-16T12:44:12.905Z,950.98
2018-07-16T12:46:39.219Z,950.85
2018-07-16T12:49:05.535Z,950.87
2018-07-16T12:51:31.868Z,950.96
2018-07-16T12:53:58.180Z,950.85
2018-07-16T12:56:24.493Z,950.82
2018-07-16T12:58:50.842Z,950.75
2018-07-16T13:01:17.161Z,950.76
2018-07-16T13:03:43.515Z,950.73
2018-07-16T13:06:09.866Z,950.71
2018-07-16T13:08:36.167Z,950.68
2018-07-16T13:11:02.483Z,950.70
2018-07-16T13:13:28.805Z,950.72
2018-07-16T13:15:55.168Z,950.69
2018-07-16T13:18:21.467Z,950.61
2018-07-16T13:20:47.744Z,950.61
2018-07-16T13:23:14.061Z,950.69
2018-07-16T13:25:40.386Z,950.65
2018-07-16T13:28:06.745Z,950.60
2018-07-16T13:30:33.060Z,950.71
2018-07-16T13:32:59.374Z,950.69
2018-07-16T13:35:25.738Z,950.68
2018-07-16T13:37:52.050Z,950.66
2018-07-16T13:40:18.368Z,950.64
2018-07-16T13:42:44.680Z,950.57
2018-07-16T13:45:11.016Z,950.60
2018-07-16T13:47:37.336Z,950.58
2018-07-16T13:50:03.677Z,950.55
2018-07-16T13:52:29.983Z,950.50
2018-07-16T13:54:56.297Z,950.54
2018-07-16T13:57:22.604Z,950.55
2018-07-16T13:59:50.533Z,950.51
2018-07-16T14:02:15.298Z,950.49
2018-07-16T14:04:41.584Z,950.50
2018-07-16T14:07:07.860Z,950.48
2018-07-16T14:09:34.234Z,950.43
2018-07-16T14:12:00.547Z,950.46
2018-07-16T14:14:26.862Z,950.46
2018-07-16T14:16:53.177Z,950.43
2018-07-16T14:19:19.539Z,950.34
2018-07-16T14:21:45.851Z,950.39
2018-07-16T14:24:12.165Z,950.32
2018-07-16T14:26:38.526Z,950.34
2018-07-16T14:29:04.836Z,950.36
2018-07-16T14:31:31.151Z,950.41
2018-07-16T14:33:57.464Z,950.40
2018-07-16T14:36:23.785Z,950.37
2018-07-16T14:38:50.092Z,950.26
2018-07-16T14:41:16.404Z,950.23
2018-07-16T14:43:42.721Z,950.24
2018-07-16T14:46:09.031Z,950.23
2018-07-16T14:48:35.341Z,950.26
2018-07-16T14:51:01.738Z,950.31
2018-07-16T14:53:28.052Z,950.21
2018-07-16T14:55:54.368Z,950.19
2018-07-16T14:58:20.684Z,950.18
2018-07-16T15:00:47.000Z,950.16
2018-07-16T15:03:13.310Z,950.13
2018-07-16T15:05:39.620Z,950.12
2018-07-16T15:08:05.928Z,950.12
2018-07-16T15:10:32.273Z,950.09
2018-07-16T15:12:58.595Z,950.02
2018-07-16T15:15:24.906Z,949.94
2018-07-16T15:17:51.226Z,949.92
2018-07-16T15:20:21.131Z,949.89
2018-07-16T15:22:55.137Z,949.86
2018-07-16T15:25:14.327Z,949.80
2018-07-16T15:27:41.802Z,949.73
2018-07-16T15:30:08.093Z,949.75
2018-07-16T15:32:34.408Z,949.75
2018-07-16T15:35:11.308Z,949.68
2018-07-16T15:37:58.670Z,949.73
2018-07-16T15:40:08.379Z,949.72
2018-07-16T15:42:34.693Z,949.75
2018-07-16T15:45:01.026Z,949.79
2018-07-16T15:47:27.319Z,949.91
2018-07-16T15:49:53.638Z,949.82
2018-07-16T15:52:19.956Z,949.88
2018-07-16T15:54:46.264Z,949.82
2018-07-16T15:57:19.713Z,949.73
2018-07-16T15:59:46.026Z,949.83
2018-07-16T16:02:13.196Z,949.73
2018-07-16T16:04:41.535Z,949.80
2018-07-16T16:07:13.366Z,949.79
2018-07-16T16:09:39.617Z,949.78
2018-07-16T16:12:05.962Z,949.85
2018-07-16T16:14:32.531Z,949.90
2018-07-16T16:16:58.807Z,949.93
2018-07-16T16:19:25.148Z,949.85
2018-07-16T16:21:51.464Z,949.98
2018-07-16T16:24:17.789Z,949.93
2018-07-16T16:26:44.099Z,950.01
2018-07-16T16:29:10.412Z,949.97
2018-07-16T16:31:36.730Z,949.98
2018-07-16T16:34:03.043Z,949.99
2018-07-16T16:36:29.516Z,950.03
2018-07-16T16:38:55.805Z,950.11
2018-07-16T16:41:22.178Z,950.19
2018-07-16T16:43:48.490Z,950.26
2018-07-16T16:46:14.800Z,950.18
2018-07-16T16:48:41.123Z,950.10
2018-07-16T16:51:07.449Z,950.15
2018-07-16T16:53:33.791Z,950.18
2018-07-16T16:56:00.081Z,950.10
2018-07-16T16:58:26.396Z,950.15
2018-07-16T17:00:52.705Z,950.11
2018-07-16T17:03:19.011Z,950.19
2018-07-16T17:05:45.334Z,950.22
2018-07-16T17:08:11.658Z,950.18
2018-07-16T17:10:37.971Z,950.22
2018-07-16T17:13:04.329Z,950.25
2018-07-16T17:15:30.653Z,950.20
2018-07-16T17:17:56.975Z,950.19
2018-07-16T17:20:23.289Z,950.22
2018-07-16T17:22:49.607Z,950.26
2018-07-16T17:25:15.938Z,950.16
2018-07-16T17:27:42.266Z,950.10
2018-07-16T17:30:08.618Z,950.19
2018-07-16T17:32:34.927Z,950.17
2018-07-16T17:35:01.278Z,950.18
2018-07-16T17:37:27.603Z,950.18
2018-07-16T17:39:53.959Z,950.13
2018-07-16T17:42:22.695Z,950.11
2018-07-16T17:44:49.043Z,950.09
2018-07-16T17:47:15.360Z,950.08
2018-07-16T17:49:41.709Z,950.09
2018-07-16T17:52:08.004Z,950.14
2018-07-16T17:54:34.339Z,950.20
2018-07-16T17:57:00.660Z,950.20
2018-07-16T17:59:26.976Z,950.27
2018-07-16T18:01:53.297Z,950.17
2018-07-16T18:04:19.615Z,950.19
2018-07-16T18:06:45.947Z,950.17
2018-07-16T18:09:12.268Z,950.25
2018-07-16T18:11:38.618Z,950.21
2018-07-16T18:14:04.900Z,950.14
2018-07-16T18:16:31.225Z,950.04
2018-07-16T18:18:57.555Z,950.01
2018-07-16T18:21:23.880Z,949.97
2018-07-16T18:23:50.252Z,949.97
2018-07-16T18:26:16.634Z,950.00
2018-07-16T18:28:42.987Z,950.08
2018-07-16T18:31:09.314Z,950.12
2018-07-16T18:33:35.645Z,950.14
2018-07-16T18:36:03.086Z,950.06
2018-07-16T18:38:29.451Z,950.07
2018-07-16T18:40:55.815Z,950.10
2018-07-16T18:43:22.137Z,950.18
2018-07-16T18:45:48.447Z,950.20
2018-07-16T18:48:14.777Z,950.23
2018-07-16T18:50:41.104Z,950.20
2018-07-16T18:53:07.435Z,950.24
2018-07-16T18:55:33.820Z,950.18
2018-07-16T18:58:00.081Z,950.25
2018-07-16T19:00:26.447Z,950.25
2018-07-16T19:02:52.765Z,950.24
2018-07-16T19:05:19.090Z,950.20
2018-07-16T19:07:45.421Z,950.12
2018-07-16T19:10:11.731Z,950.08
2018-07-16T19:12:38.115Z,950.12
2018-07-16T19:15:04.437Z,950.11
2018-07-16T19:17:30.747Z,950.13
2018-07-16T19:19:57.124Z,950.22
2018-07-16T19:22:23.436Z,950.21
2018-07-16T19:24:49.813Z,950.17
2018-07-16T19:27:16.117Z,950.18
2018-07-16T19:29:42.532Z,950.12
2018-07-16T19:32:08.847Z,950.12
2018-07-16T19:34:35.198Z,950.12
2018-07-16T19:37:01.562Z,950.08
2018-07-16T19:39:27.856Z,950.13
2018-07-16T19:41:54.221Z,950.06
2018-07-16T19:44:20.532Z,950.03
2018-07-16T19:46:46.848Z,950.12
2018-07-16T19:49:13.173Z,950.09
2018-07-16T19:51:39.482Z,950.07
2018-07-16T19:54:05.801Z,949.98
2018-07-16T19:56:32.111Z,950.04
2018-07-16T19:58:58.424Z,950.04
2018-07-16T20:01:24.754Z,950.08
2018-07-16T20:03:51.085Z,950.08
2018-07-16T20:06:17.375Z,950.09
2018-07-16T20:08:43.706Z,950.02
2018-07-16T20:11:10.032Z,950.06
2018-07-16T20:13:36.404Z,950.07
2018-07-16T20:16:02.715Z,949.94
2018-07-16T20:18:29.045Z,949.93
2018-07-16T20:20:55.435Z,949.94
2018-07-16T20:23:21.689Z,949.96
2018-07-16T20:25:48.016Z,949.97
2018-07-16T20:28:14.480Z,949.91
2018-07-16T20:30:40.753Z,949.91
2018-07-16T20:33:07.067Z,949.91
2018-07-16T20:35:33.379Z,949.81
2018-07-16T20:37:59.768Z,949.76
2018-07-16T20:40:26.096Z,949.80
2018-07-16T20:42:52.410Z,949.78
2018-07-16T20:45:18.739Z,949.79
2018-07-16T20:47:45.229Z,949.70
2018-07-16T20:50:11.527Z,949.70
2018-07-16T20:52:37.858Z,949.63
2018-07-16T20:55:04.184Z,949.57
2018-07-16T20:57:30.499Z,949.61
2018-07-16T20:59:56.899Z,949.57
2018-07-16T21:02:23.247Z,949.60
2018-07-16T21:04:49.606Z,949.58
2018-07-16T21:07:16.033Z,949.60
2018-07-16T21:09:42.309Z,949.68
2018-07-16T21:12:08.673Z,949.67
2018-07-16T21:14:34.986Z,949.66
2018-07-16T21:17:01.298Z,949.67
2018-07-16T21:19:27.629Z,949.68
2018-07-16T21:21:53.940Z,949.71
2018-07-16T21:24:20.259Z,949.66
2018-07-16T21:26:46.588Z,949.70
2018-07-16T21:29:12.901Z,949.67
2018-07-16T21:31:39.217Z,949.62
2018-07-16T21:34:05.535Z,949.60
2018-07-16T21:36:31.852Z,949.56
2018-07-16T21:38:58.170Z,949.58
2018-07-16T21:41:24.490Z,949.58
2018-07-16T21:43:50.814Z,949.52
2018-07-16T21:46:17.125Z,949.49
2018-07-16T21:48:43.443Z,949.48
2018-07-16T21:51:09.755Z,949.55
2018-07-16T21:53:36.113Z,949.49
2018-07-16T21:56:02.419Z,949.54
2018-07-16T21:58:28.734Z,949.58
2018-07-16T22:00:55.048Z,949.55
2018-07-16T22:03:21.363Z,949.53
2018-07-16T22:05:47.671Z,949.54
2018-07-16T22:08:14.008Z,949.62
2018-07-16T22:10:40.311Z,949.56
2018-07-16T22:13:06.624Z,949.59
2018-07-16T22:15:32.941Z,949.59
2018-07-16T22:17:59.311Z,949.61
2018-07-16T22:20:25.634Z,949.59
2018-07-16T22:22:51.950Z,949.58
2018-07-16T22:25:18.302Z,949.62
2018-07-16T22:27:44.594Z,949.64
2018-07-16T22:30:10.933Z,949.62
2018-07-16T22:32:37.254Z,949.61
2018-07-16T22:35:03.570Z,949.59
2018-07-16T22:37:29.883Z,949.58
2018-07-16T22:39:56.204Z,949.49
2018-07-16T22:42:22.515Z,949.55
2018-07-16T22:44:48.828Z,949.49
2018-07-16T22:47:15.155Z,949.59
2018-07-16T22:49:41.469Z,949.52
2018-07-16T22:52:07.865Z,949.54
2018-07-16T22:54:34.181Z,949.52
2018-07-16T22:57:00.546Z,949.47
2018-07-16T22:59:26.863Z,949.49
2018-07-16T23:01:53.172Z,949.54
2018-07-16T23:04:19.495Z,949.51
2018-07-16T23:06:45.805Z,949.49
2018-07-16T23:09:12.118Z,949.43
2018-07-16T23:11:38.436Z,949.44
2018-07-16T23:14:04.750Z,949.51
2018-07-16T23:16:31.063Z,949.52
2018-07-16T23:18:57.371Z,949.59
2018-07-16T23:21:23.700Z,949.51
2018-07-16T23:23:50.050Z,949.37
2018-07-16T23:26:16.336Z,949.44
2018-07-16T23:28:42.693Z,949.31
2018-07-16T23:31:08.957Z,949.34
2018-07-16T23:33:35.310Z,949.24
2018-07-16T23:36:01.718Z,949.30
2018-07-16T23:38:31.452Z,949.31
2018-07-16T23:40:57.729Z,949.26
2018-07-16T23:43:24.041Z,949.26
2018-07-16T23:45:50.352Z,949.31
2018-07-16T23:48:16.663Z,949.35
2018-07-16T23:50:42.979Z,949.42
2018-07-16T23:53:09.340Z,949.55
2018-07-16T23:55:35.703Z,949.46
2018-07-16T23:58:02.006Z,949.42
